sensor_id;sensor_type;location;lat;lon;timestamp;P1;durP1;ratioP1;P2;durP2;ratioP2
3911;SDS011;1971;51.778;10.330;2022-09-09T00:00:35;4.10;;;1.20;;
3911;SDS011;1971;51.778;10.330;2022-09-09T00:03:17;1.30;;;1.03;;
3911;SDS011;1971;51.778;10.330;2022-09-09T00:05:59;2.10;;;1.60;;
3911;SDS011;1971;51.778;10.330;2022-09-09T00:08:41;2.33;;;1.50;;
3911;SDS011;1971;51.778;10.330;2022-09-09T00:11:26;2.57;;;1.20;;
3911;SDS011;1971;51.778;10.330;2022-09-09T00:14:12;1.40;;;1.00;;
3911;SDS011;1971;51.778;10.330;2022-09-09T00:17:00;1.80;;;1.07;;
3911;SDS011;1971;51.778;10.330;2022-09-09T00:19:41;3.83;;;1.50;;
3911;SDS011;1971;51.778;10.330;2022-09-09T00:22:25;1.30;;;1.20;;
3911;SDS011;1971;51.778;10.330;2022-09-09T00:25:13;1.40;;;1.17;;
3911;SDS011;1971;51.778;10.330;2022-09-09T00:27:55;2.20;;;1.00;;
3911;SDS011;1971;51.778;10.330;2022-09-09T00:30:32;2.10;;;1.30;;
3911;SDS011;1971;51.778;10.330;2022-09-09T00:33:19;1.83;;;1.30;;
3911;SDS011;1971;51.778;10.330;2022-09-09T00:35:58;1.70;;;1.40;;
3911;SDS011;1971;51.778;10.330;2022-09-09T00:38:42;2.00;;;1.40;;
3911;SDS011;1971;51.778;10.330;2022-09-09T00:41:22;2.77;;;1.50;;
3911;SDS011;1971;51.778;10.330;2022-09-09T00:44:13;2.10;;;1.90;;
3911;SDS011;1971;51.778;10.330;2022-09-09T00:46:59;2.13;;;1.73;;
3911;SDS011;1971;51.778;10.330;2022-09-09T00:49:54;1.67;;;1.30;;
3911;SDS011;1971;51.778;10.330;2022-09-09T00:52:43;2.20;;;1.23;;
3911;SDS011;1971;51.778;10.330;2022-09-09T00:55:27;1.73;;;1.30;;
3911;SDS011;1971;51.778;10.330;2022-09-09T00:58:09;2.27;;;1.40;;
3911;SDS011;1971;51.778;10.330;2022-09-09T01:00:47;3.93;;;2.10;;
3911;SDS011;1971;51.778;10.330;2022-09-09T01:03:34;4.33;;;2.00;;
3911;SDS011;1971;51.778;10.330;2022-09-09T01:06:15;2.90;;;1.70;;
3911;SDS011;1971;51.778;10.330;2022-09-09T01:09:05;2.50;;;1.40;;
3911;SDS011;1971;51.778;10.330;2022-09-09T01:11:49;2.40;;;1.67;;
3911;SDS011;1971;51.778;10.330;2022-09-09T01:14:38;4.53;;;1.70;;
3911;SDS011;1971;51.778;10.330;2022-09-09T01:17:19;3.70;;;1.43;;
3911;SDS011;1971;51.778;10.330;2022-09-09T01:20:07;1.93;;;1.20;;
3911;SDS011;1971;51.778;10.330;2022-09-09T01:23:07;3.17;;;1.70;;
3911;SDS011;1971;51.778;10.330;2022-09-09T01:29:02;2.27;;;1.40;;
3911;SDS011;1971;51.778;10.330;2022-09-09T01:31:43;2.67;;;1.50;;
3911;SDS011;1971;51.778;10.330;2022-09-09T01:34:30;2.70;;;1.73;;
3911;SDS011;1971;51.778;10.330;2022-09-09T01:37:11;2.53;;;1.50;;
3911;SDS011;1971;51.778;10.330;2022-09-09T01:39:54;1.87;;;1.50;;
3911;SDS011;1971;51.778;10.330;2022-09-09T01:42:32;2.90;;;1.40;;
3911;SDS011;1971;51.778;10.330;2022-09-09T01:45:15;2.17;;;1.60;;
3911;SDS011;1971;51.778;10.330;2022-09-09T01:47:52;3.50;;;1.40;;
3911;SDS011;1971;51.778;10.330;2022-09-09T01:50:30;2.93;;;2.03;;
3911;SDS011;1971;51.778;10.330;2022-09-09T01:53:12;2.10;;;1.30;;
3911;SDS011;1971;51.778;10.330;2022-09-09T01:55:53;2.43;;;1.60;;
3911;SDS011;1971;51.778;10.330;2022-09-09T01:58:50;4.27;;;1.80;;
3911;SDS011;1971;51.778;10.330;2022-09-09T02:01:39;4.40;;;1.83;;
3911;SDS011;1971;51.778;10.330;2022-09-09T02:04:30;2.90;;;1.60;;
3911;SDS011;1971;51.778;10.330;2022-09-09T02:07:19;1.80;;;1.50;;
3911;SDS011;1971;51.778;10.330;2022-09-09T02:10:17;1.90;;;1.60;;
3911;SDS011;1971;51.778;10.330;2022-09-09T02:13:01;3.30;;;1.57;;
3911;SDS011;1971;51.778;10.330;2022-09-09T02:15:47;2.70;;;1.20;;
3911;SDS011;1971;51.778;10.330;2022-09-09T02:18:29;4.03;;;2.00;;
3911;SDS011;1971;51.778;10.330;2022-09-09T02:21:10;2.37;;;1.47;;
3911;SDS011;1971;51.778;10.330;2022-09-09T02:23:54;1.67;;;1.30;;
3911;SDS011;1971;51.778;10.330;2022-09-09T02:26:33;2.70;;;1.40;;
3911;SDS011;1971;51.778;10.330;2022-09-09T02:29:19;2.90;;;1.90;;
3911;SDS011;1971;51.778;10.330;2022-09-09T02:32:03;1.67;;;1.57;;
3911;SDS011;1971;51.778;10.330;2022-09-09T02:34:43;1.70;;;1.60;;
3911;SDS011;1971;51.778;10.330;2022-09-09T02:37:23;1.77;;;1.23;;
3911;SDS011;1971;51.778;10.330;2022-09-09T02:40:10;1.97;;;1.50;;
3911;SDS011;1971;51.778;10.330;2022-09-09T02:42:49;2.20;;;1.40;;
3911;SDS011;1971;51.778;10.330;2022-09-09T02:45:27;2.43;;;1.70;;
3911;SDS011;1971;51.778;10.330;2022-09-09T02:48:23;2.97;;;1.93;;
3911;SDS011;1971;51.778;10.330;2022-09-09T02:51:07;6.57;;;2.00;;
3911;SDS011;1971;51.778;10.330;2022-09-09T02:53:53;1.93;;;1.40;;
3911;SDS011;1971;51.778;10.330;2022-09-09T02:56:36;2.27;;;1.77;;
3911;SDS011;1971;51.778;10.330;2022-09-09T02:59:24;3.40;;;1.70;;
3911;SDS011;1971;51.778;10.330;2022-09-09T03:02:02;2.00;;;1.50;;
3911;SDS011;1971;51.778;10.330;2022-09-09T03:04:46;1.73;;;1.37;;
3911;SDS011;1971;51.778;10.330;2022-09-09T03:07:24;3.10;;;2.00;;
3911;SDS011;1971;51.778;10.330;2022-09-09T03:10:06;3.33;;;1.77;;
3911;SDS011;1971;51.778;10.330;2022-09-09T03:12:44;5.47;;;2.03;;
3911;SDS011;1971;51.778;10.330;2022-09-09T03:15:26;3.73;;;1.67;;
3911;SDS011;1971;51.778;10.330;2022-09-09T03:18:04;1.87;;;1.60;;
3911;SDS011;1971;51.778;10.330;2022-09-09T03:20:43;2.40;;;2.13;;
3911;SDS011;1971;51.778;10.330;2022-09-09T03:23:28;3.00;;;1.93;;
3911;SDS011;1971;51.778;10.330;2022-09-09T03:26:07;3.07;;;1.80;;
3911;SDS011;1971;51.778;10.330;2022-09-09T03:28:50;2.77;;;1.67;;
3911;SDS011;1971;51.778;10.330;2022-09-09T03:31:27;2.80;;;1.97;;
3911;SDS011;1971;51.778;10.330;2022-09-09T03:34:10;1.97;;;1.83;;
3911;SDS011;1971;51.778;10.330;2022-09-09T03:36:49;3.00;;;2.03;;
3911;SDS011;1971;51.778;10.330;2022-09-09T03:39:32;41.03;;;3.20;;
3911;SDS011;1971;51.778;10.330;2022-09-09T03:42:08;2.40;;;1.80;;
3911;SDS011;1971;51.778;10.330;2022-09-09T03:44:51;3.40;;;1.63;;
3911;SDS011;1971;51.778;10.330;2022-09-09T03:47:28;4.30;;;2.03;;
3911;SDS011;1971;51.778;10.330;2022-09-09T03:50:04;4.13;;;2.20;;
3911;SDS011;1971;51.778;10.330;2022-09-09T03:52:51;2.87;;;1.90;;
3911;SDS011;1971;51.778;10.330;2022-09-09T03:55:28;2.77;;;2.50;;
3911;SDS011;1971;51.778;10.330;2022-09-09T03:58:10;2.57;;;1.70;;
3911;SDS011;1971;51.778;10.330;2022-09-09T04:00:52;3.70;;;2.40;;
3911;SDS011;1971;51.778;10.330;2022-09-09T04:03:25;1.97;;;1.87;;
3911;SDS011;1971;51.778;10.330;2022-09-09T04:06:08;3.27;;;1.83;;
3911;SDS011;1971;51.778;10.330;2022-09-09T04:08:48;2.73;;;1.77;;
3911;SDS011;1971;51.778;10.330;2022-09-09T04:11:25;2.43;;;1.80;;
3911;SDS011;1971;51.778;10.330;2022-09-09T04:14:07;3.47;;;2.57;;
3911;SDS011;1971;51.778;10.330;2022-09-09T04:16:43;2.43;;;2.13;;
3911;SDS011;1971;51.778;10.330;2022-09-09T04:19:25;2.50;;;1.97;;
3911;SDS011;1971;51.778;10.330;2022-09-09T04:22:01;2.30;;;2.10;;
3911;SDS011;1971;51.778;10.330;2022-09-09T04:24:45;5.93;;;2.63;;
3911;SDS011;1971;51.778;10.330;2022-09-09T04:27:22;4.47;;;2.50;;
3911;SDS011;1971;51.778;10.330;2022-09-09T04:30:04;2.83;;;2.10;;
3911;SDS011;1971;51.778;10.330;2022-09-09T04:32:41;2.00;;;1.90;;
3911;SDS011;1971;51.778;10.330;2022-09-09T04:35:23;2.37;;;2.07;;
3911;SDS011;1971;51.778;10.330;2022-09-09T04:38:00;2.23;;;2.03;;
3911;SDS011;1971;51.778;10.330;2022-09-09T04:40:46;2.20;;;1.70;;
3911;SDS011;1971;51.778;10.330;2022-09-09T04:43:22;4.63;;;2.27;;
3911;SDS011;1971;51.778;10.330;2022-09-09T04:46:04;2.10;;;1.83;;
3911;SDS011;1971;51.778;10.330;2022-09-09T04:48:41;2.13;;;1.60;;
3911;SDS011;1971;51.778;10.330;2022-09-09T04:51:18;2.67;;;1.87;;
3911;SDS011;1971;51.778;10.330;2022-09-09T04:54:00;1.57;;;1.47;;
3911;SDS011;1971;51.778;10.330;2022-09-09T04:56:38;4.10;;;2.30;;
3911;SDS011;1971;51.778;10.330;2022-09-09T04:59:22;2.30;;;1.70;;
3911;SDS011;1971;51.778;10.330;2022-09-09T05:01:58;4.00;;;2.80;;
3911;SDS011;1971;51.778;10.330;2022-09-09T05:04:42;2.80;;;1.93;;
3911;SDS011;1971;51.778;10.330;2022-09-09T05:07:18;3.73;;;1.70;;
3911;SDS011;1971;51.778;10.330;2022-09-09T05:10:00;2.63;;;1.77;;
3911;SDS011;1971;51.778;10.330;2022-09-09T05:12:39;5.40;;;2.80;;
3911;SDS011;1971;51.778;10.330;2022-09-09T05:15:22;2.37;;;1.50;;
3911;SDS011;1971;51.778;10.330;2022-09-09T05:17:58;2.90;;;1.83;;
3911;SDS011;1971;51.778;10.330;2022-09-09T05:20:41;2.03;;;1.77;;
3911;SDS011;1971;51.778;10.330;2022-09-09T05:23:17;3.23;;;1.70;;
3911;SDS011;1971;51.778;10.330;2022-09-09T05:25:59;5.53;;;1.80;;
3911;SDS011;1971;51.778;10.330;2022-09-09T05:28:39;3.37;;;1.87;;
3911;SDS011;1971;51.778;10.330;2022-09-09T05:31:16;3.53;;;1.40;;
3911;SDS011;1971;51.778;10.330;2022-09-09T05:34:00;1.67;;;1.57;;
3911;SDS011;1971;51.778;10.330;2022-09-09T05:36:36;2.60;;;1.77;;
3911;SDS011;1971;51.778;10.330;2022-09-09T05:39:18;3.03;;;1.70;;
3911;SDS011;1971;51.778;10.330;2022-09-09T05:41:54;1.83;;;1.30;;
3911;SDS011;1971;51.778;10.330;2022-09-09T05:44:38;2.87;;;1.57;;
3911;SDS011;1971;51.778;10.330;2022-09-09T05:47:16;2.13;;;1.80;;
3911;SDS011;1971;51.778;10.330;2022-09-09T05:49:58;1.83;;;1.30;;
3911;SDS011;1971;51.778;10.330;2022-09-09T05:52:34;2.97;;;1.57;;
3911;SDS011;1971;51.778;10.330;2022-09-09T05:55:16;2.33;;;1.63;;
3911;SDS011;1971;51.778;10.330;2022-09-09T05:57:52;2.73;;;2.10;;
3911;SDS011;1971;51.778;10.330;2022-09-09T06:00:36;4.43;;;1.60;;
3911;SDS011;1971;51.778;10.330;2022-09-09T06:03:13;2.13;;;1.93;;
3911;SDS011;1971;51.778;10.330;2022-09-09T06:05:58;1.77;;;1.50;;
3911;SDS011;1971;51.778;10.330;2022-09-09T06:08:38;2.13;;;1.70;;
3911;SDS011;1971;51.778;10.330;2022-09-09T06:11:17;2.70;;;1.80;;
3911;SDS011;1971;51.778;10.330;2022-09-09T06:14:01;3.20;;;1.60;;
3911;SDS011;1971;51.778;10.330;2022-09-09T06:16:39;3.13;;;1.60;;
3911;SDS011;1971;51.778;10.330;2022-09-09T06:19:22;3.00;;;1.83;;
3911;SDS011;1971;51.778;10.330;2022-09-09T06:21:59;3.40;;;1.57;;
3911;SDS011;1971;51.778;10.330;2022-09-09T06:24:41;2.00;;;1.80;;
3911;SDS011;1971;51.778;10.330;2022-09-09T06:27:17;2.47;;;2.00;;
3911;SDS011;1971;51.778;10.330;2022-09-09T06:29:59;3.43;;;1.60;;
3911;SDS011;1971;51.778;10.330;2022-09-09T06:32:38;3.50;;;1.63;;
3911;SDS011;1971;51.778;10.330;2022-09-09T06:35:21;3.70;;;1.77;;
3911;SDS011;1971;51.778;10.330;2022-09-09T06:37:57;2.83;;;1.60;;
3911;SDS011;1971;51.778;10.330;2022-09-09T06:40:39;2.50;;;1.70;;
3911;SDS011;1971;51.778;10.330;2022-09-09T06:43:16;3.47;;;2.37;;
3911;SDS011;1971;51.778;10.330;2022-09-09T06:45:59;1.90;;;1.57;;
3911;SDS011;1971;51.778;10.330;2022-09-09T06:48:41;2.73;;;1.90;;
3911;SDS011;1971;51.778;10.330;2022-09-09T06:51:25;2.60;;;1.70;;
3911;SDS011;1971;51.778;10.330;2022-09-09T06:54:02;4.87;;;2.30;;
3911;SDS011;1971;51.778;10.330;2022-09-09T06:56:41;2.73;;;1.77;;
3911;SDS011;1971;51.778;10.330;2022-09-09T06:59:24;2.93;;;1.80;;
3911;SDS011;1971;51.778;10.330;2022-09-09T07:02:01;3.47;;;2.50;;
3911;SDS011;1971;51.778;10.330;2022-09-09T07:04:46;2.60;;;1.97;;
3911;SDS011;1971;51.778;10.330;2022-09-09T07:07:24;2.30;;;1.63;;
3911;SDS011;1971;51.778;10.330;2022-09-09T07:10:00;1.80;;;1.70;;
3911;SDS011;1971;51.778;10.330;2022-09-09T07:12:42;2.50;;;1.87;;
3911;SDS011;1971;51.778;10.330;2022-09-09T07:15:18;3.50;;;2.03;;
3911;SDS011;1971;51.778;10.330;2022-09-09T07:18:01;4.00;;;2.30;;
3911;SDS011;1971;51.778;10.330;2022-09-09T07:20:40;3.07;;;2.13;;
3911;SDS011;1971;51.778;10.330;2022-09-09T07:23:17;3.93;;;1.90;;
3911;SDS011;1971;51.778;10.330;2022-09-09T07:25:59;3.23;;;1.87;;
3911;SDS011;1971;51.778;10.330;2022-09-09T07:28:36;2.57;;;1.90;;
3911;SDS011;1971;51.778;10.330;2022-09-09T07:31:20;2.30;;;2.07;;
3911;SDS011;1971;51.778;10.330;2022-09-09T07:33:58;3.43;;;2.37;;
3911;SDS011;1971;51.778;10.330;2022-09-09T07:36:38;3.43;;;1.87;;
3911;SDS011;1971;51.778;10.330;2022-09-09T07:39:21;3.97;;;1.90;;
3911;SDS011;1971;51.778;10.330;2022-09-09T07:41:57;2.80;;;1.80;;
3911;SDS011;1971;51.778;10.330;2022-09-09T07:44:39;2.30;;;1.50;;
3911;SDS011;1971;51.778;10.330;2022-09-09T07:47:15;3.67;;;2.13;;
3911;SDS011;1971;51.778;10.330;2022-09-09T07:49:57;4.63;;;2.23;;
3911;SDS011;1971;51.778;10.330;2022-09-09T07:52:36;2.93;;;2.17;;
3911;SDS011;1971;51.778;10.330;2022-09-09T07:55:18;2.60;;;1.80;;
3911;SDS011;1971;51.778;10.330;2022-09-09T07:57:55;2.33;;;1.97;;
3911;SDS011;1971;51.778;10.330;2022-09-09T08:00:37;3.07;;;1.73;;
3911;SDS011;1971;51.778;10.330;2022-09-09T08:03:17;2.30;;;1.70;;
3911;SDS011;1971;51.778;10.330;2022-09-09T08:06:00;1.83;;;1.70;;
3911;SDS011;1971;51.778;10.330;2022-09-09T08:08:40;4.10;;;2.20;;
3911;SDS011;1971;51.778;10.330;2022-09-09T08:11:26;4.40;;;2.23;;
3911;SDS011;1971;51.778;10.330;2022-09-09T08:14:10;2.20;;;1.77;;
3911;SDS011;1971;51.778;10.330;2022-09-09T08:16:47;3.70;;;1.90;;
3911;SDS011;1971;51.778;10.330;2022-09-09T08:19:32;2.37;;;2.13;;
3911;SDS011;1971;51.778;10.330;2022-09-09T08:22:09;2.30;;;2.10;;
3911;SDS011;1971;51.778;10.330;2022-09-09T08:24:53;2.07;;;1.83;;
3911;SDS011;1971;51.778;10.330;2022-09-09T08:27:30;2.00;;;1.73;;
3911;SDS011;1971;51.778;10.330;2022-09-09T08:30:12;3.50;;;1.80;;
3911;SDS011;1971;51.778;10.330;2022-09-09T08:32:49;1.83;;;1.60;;
3911;SDS011;1971;51.778;10.330;2022-09-09T08:35:31;2.60;;;1.77;;
3911;SDS011;1971;51.778;10.330;2022-09-09T08:38:07;2.90;;;2.23;;
3911;SDS011;1971;51.778;10.330;2022-09-09T08:40:51;3.50;;;1.90;;
3911;SDS011;1971;51.778;10.330;2022-09-09T08:43:34;2.50;;;1.93;;
3911;SDS011;1971;51.778;10.330;2022-09-09T08:46:17;4.43;;;2.60;;
3911;SDS011;1971;51.778;10.330;2022-09-09T08:49:04;5.70;;;2.33;;
3911;SDS011;1971;51.778;10.330;2022-09-09T08:51:50;4.63;;;1.93;;
3911;SDS011;1971;51.778;10.330;2022-09-09T08:54:34;2.37;;;1.87;;
3911;SDS011;1971;51.778;10.330;2022-09-09T08:57:23;6.07;;;2.30;;
3911;SDS011;1971;51.778;10.330;2022-09-09T09:00:09;3.57;;;1.80;;
3911;SDS011;1971;51.778;10.330;2022-09-09T09:02:48;7.53;;;2.70;;
3911;SDS011;1971;51.778;10.330;2022-09-09T09:05:42;2.50;;;1.83;;
3911;SDS011;1971;51.778;10.330;2022-09-09T09:08:25;2.70;;;1.80;;
3911;SDS011;1971;51.778;10.330;2022-09-09T09:11:06;2.30;;;1.50;;
3911;SDS011;1971;51.778;10.330;2022-09-09T09:13:45;1.93;;;1.63;;
3911;SDS011;1971;51.778;10.330;2022-09-09T09:16:29;3.30;;;2.00;;
3911;SDS011;1971;51.778;10.330;2022-09-09T09:19:10;1.57;;;1.37;;
3911;SDS011;1971;51.778;10.330;2022-09-09T09:21:57;3.83;;;1.57;;
3911;SDS011;1971;51.778;10.330;2022-09-09T09:24:41;4.60;;;1.80;;
3911;SDS011;1971;51.778;10.330;2022-09-09T09:27:28;5.33;;;2.20;;
3911;SDS011;1971;51.778;10.330;2022-09-09T09:30:17;2.37;;;1.63;;
3911;SDS011;1971;51.778;10.330;2022-09-09T09:33:02;1.70;;;1.60;;
3911;SDS011;1971;51.778;10.330;2022-09-09T09:35:50;2.33;;;1.60;;
3911;SDS011;1971;51.778;10.330;2022-09-09T09:38:26;3.93;;;1.63;;
3911;SDS011;1971;51.778;10.330;2022-09-09T09:41:14;1.80;;;1.30;;
3911;SDS011;1971;51.778;10.330;2022-09-09T09:43:57;2.50;;;1.27;;
3911;SDS011;1971;51.778;10.330;2022-09-09T09:46:37;2.07;;;1.30;;
3911;SDS011;1971;51.778;10.330;2022-09-09T09:49:20;3.03;;;2.10;;
3911;SDS011;1971;51.778;10.330;2022-09-09T09:51:59;2.60;;;1.40;;
3911;SDS011;1971;51.778;10.330;2022-09-09T09:54:42;2.13;;;1.70;;
3911;SDS011;1971;51.778;10.330;2022-09-09T09:57:18;1.80;;;1.40;;
3911;SDS011;1971;51.778;10.330;2022-09-09T10:00:03;2.30;;;1.50;;
3911;SDS011;1971;51.778;10.330;2022-09-09T10:02:51;3.57;;;1.70;;
3911;SDS011;1971;51.778;10.330;2022-09-09T10:05:35;1.80;;;1.43;;
3911;SDS011;1971;51.778;10.330;2022-09-09T10:08:12;3.30;;;2.00;;
3911;SDS011;1971;51.778;10.330;2022-09-09T10:11:02;2.23;;;1.80;;
3911;SDS011;1971;51.778;10.330;2022-09-09T10:13:50;1.63;;;1.40;;
3911;SDS011;1971;51.778;10.330;2022-09-09T10:16:36;2.97;;;1.80;;
3911;SDS011;1971;51.778;10.330;2022-09-09T10:19:26;2.10;;;1.70;;
3911;SDS011;1971;51.778;10.330;2022-09-09T10:22:10;2.03;;;1.80;;
3911;SDS011;1971;51.778;10.330;2022-09-09T10:25:11;2.97;;;1.80;;
3911;SDS011;1971;51.778;10.330;2022-09-09T10:28:25;3.77;;;1.90;;
3911;SDS011;1971;51.778;10.330;2022-09-09T10:31:16;3.03;;;1.50;;
3911;SDS011;1971;51.778;10.330;2022-09-09T10:34:02;3.30;;;1.70;;
3911;SDS011;1971;51.778;10.330;2022-09-09T10:36:51;2.40;;;1.70;;
3911;SDS011;1971;51.778;10.330;2022-09-09T10:39:35;5.07;;;2.13;;
3911;SDS011;1971;51.778;10.330;2022-09-09T10:42:16;2.13;;;1.57;;
3911;SDS011;1971;51.778;10.330;2022-09-09T10:45:02;1.53;;;1.43;;
3911;SDS011;1971;51.778;10.330;2022-09-09T10:47:56;2.60;;;1.30;;
3911;SDS011;1971;51.778;10.330;2022-09-09T10:50:51;2.30;;;1.40;;
3911;SDS011;1971;51.778;10.330;2022-09-09T10:53:40;4.67;;;1.70;;
3911;SDS011;1971;51.778;10.330;2022-09-09T10:56:23;3.30;;;1.23;;
3911;SDS011;1971;51.778;10.330;2022-09-09T10:59:01;2.03;;;1.20;;
3911;SDS011;1971;51.778;10.330;2022-09-09T11:01:47;4.03;;;1.43;;
3911;SDS011;1971;51.778;10.330;2022-09-09T11:04:28;2.60;;;1.17;;
3911;SDS011;1971;51.778;10.330;2022-09-09T11:07:11;2.70;;;1.40;;
3911;SDS011;1971;51.778;10.330;2022-09-09T11:09:57;2.20;;;1.97;;
3911;SDS011;1971;51.778;10.330;2022-09-09T11:12:39;3.87;;;1.30;;
3911;SDS011;1971;51.778;10.330;2022-09-09T11:15:26;2.60;;;1.20;;
3911;SDS011;1971;51.778;10.330;2022-09-09T11:18:06;2.67;;;1.40;;
3911;SDS011;1971;51.778;10.330;2022-09-09T11:20:53;4.60;;;1.37;;
3911;SDS011;1971;51.778;10.330;2022-09-09T11:23:35;2.60;;;1.20;;
3911;SDS011;1971;51.778;10.330;2022-09-09T11:26:28;3.00;;;1.13;;
3911;SDS011;1971;51.778;10.330;2022-09-09T11:29:12;3.03;;;1.40;;
3911;SDS011;1971;51.778;10.330;2022-09-09T11:32:21;4.80;;;1.80;;
3911;SDS011;1971;51.778;10.330;2022-09-09T11:35:19;3.70;;;1.83;;
3911;SDS011;1971;51.778;10.330;2022-09-09T11:38:02;3.23;;;1.60;;
3911;SDS011;1971;51.778;10.330;2022-09-09T11:41:03;4.77;;;1.60;;
3911;SDS011;1971;51.778;10.330;2022-09-09T11:43:46;2.90;;;1.50;;
3911;SDS011;1971;51.778;10.330;2022-09-09T11:46:32;2.37;;;1.40;;
3911;SDS011;1971;51.778;10.330;2022-09-09T11:49:23;3.27;;;1.50;;
3911;SDS011;1971;51.778;10.330;2022-09-09T11:54:52;2.63;;;1.60;;
3911;SDS011;1971;51.778;10.330;2022-09-09T11:57:32;3.43;;;1.30;;
3911;SDS011;1971;51.778;10.330;2022-09-09T12:06:16;1.50;;;1.40;;
3911;SDS011;1971;51.778;10.330;2022-09-09T12:08:55;1.60;;;1.40;;
3911;SDS011;1971;51.778;10.330;2022-09-09T12:11:39;5.43;;;1.67;;
3911;SDS011;1971;51.778;10.330;2022-09-09T12:14:19;3.87;;;1.20;;
3911;SDS011;1971;51.778;10.330;2022-09-09T12:20:03;8.93;;;1.73;;
3911;SDS011;1971;51.778;10.330;2022-09-09T12:22:43;3.70;;;1.07;;
3911;SDS011;1971;51.778;10.330;2022-09-09T12:25:57;2.20;;;1.10;;
3911;SDS011;1971;51.778;10.330;2022-09-09T12:28:42;1.80;;;1.10;;
3911;SDS011;1971;51.778;10.330;2022-09-09T12:31:29;2.50;;;1.30;;
3911;SDS011;1971;51.778;10.330;2022-09-09T12:34:16;1.73;;;0.97;;
3911;SDS011;1971;51.778;10.330;2022-09-09T12:37:02;1.83;;;1.50;;
3911;SDS011;1971;51.778;10.330;2022-09-09T12:39:49;1.93;;;1.13;;
3911;SDS011;1971;51.778;10.330;2022-09-09T12:42:30;1.57;;;1.20;;
3911;SDS011;1971;51.778;10.330;2022-09-09T12:45:15;2.73;;;1.47;;
3911;SDS011;1971;51.778;10.330;2022-09-09T12:47:53;3.23;;;1.37;;
3911;SDS011;1971;51.778;10.330;2022-09-09T12:50:44;2.43;;;1.03;;
3911;SDS011;1971;51.778;10.330;2022-09-09T12:53:24;2.30;;;1.13;;
3911;SDS011;1971;51.778;10.330;2022-09-09T12:56:08;2.20;;;1.20;;
3911;SDS011;1971;51.778;10.330;2022-09-09T12:58:54;1.77;;;1.00;;
3911;SDS011;1971;51.778;10.330;2022-09-09T13:01:39;1.93;;;1.20;;
3911;SDS011;1971;51.778;10.330;2022-09-09T13:04:18;1.87;;;1.73;;
3911;SDS011;1971;51.778;10.330;2022-09-09T13:07:09;3.97;;;1.67;;
3911;SDS011;1971;51.778;10.330;2022-09-09T13:09:48;2.00;;;0.93;;
3911;SDS011;1971;51.778;10.330;2022-09-09T13:12:25;2.83;;;0.90;;
3911;SDS011;1971;51.778;10.330;2022-09-09T13:15:10;2.20;;;1.10;;
3911;SDS011;1971;51.778;10.330;2022-09-09T13:17:54;1.43;;;1.00;;
3911;SDS011;1971;51.778;10.330;2022-09-09T13:20:39;1.23;;;0.80;;
3911;SDS011;1971;51.778;10.330;2022-09-09T13:23:25;1.60;;;0.77;;
3911;SDS011;1971;51.778;10.330;2022-09-09T13:26:19;1.53;;;1.10;;
3911;SDS011;1971;51.778;10.330;2022-09-09T13:29:07;1.07;;;0.80;;
3911;SDS011;1971;51.778;10.330;2022-09-09T13:32:03;1.63;;;1.53;;
3911;SDS011;1971;51.778;10.330;2022-09-09T13:34:50;1.40;;;0.80;;
3911;SDS011;1971;51.778;10.330;2022-09-09T13:37:22;1.70;;;1.10;;
3911;SDS011;1971;51.778;10.330;2022-09-09T13:40:16;1.57;;;0.80;;
3911;SDS011;1971;51.778;10.330;2022-09-09T13:42:55;1.00;;;0.90;;
3911;SDS011;1971;51.778;10.330;2022-09-09T13:45:38;2.03;;;1.30;;
3911;SDS011;1971;51.778;10.330;2022-09-09T13:48:17;1.50;;;0.90;;
3911;SDS011;1971;51.778;10.330;2022-09-09T13:51:01;1.07;;;0.97;;
3911;SDS011;1971;51.778;10.330;2022-09-09T13:53:39;1.73;;;1.10;;
3911;SDS011;1971;51.778;10.330;2022-09-09T13:56:24;1.70;;;0.93;;
3911;SDS011;1971;51.778;10.330;2022-09-09T13:59:00;2.63;;;1.27;;
3911;SDS011;1971;51.778;10.330;2022-09-09T14:01:37;2.40;;;1.03;;
3911;SDS011;1971;51.778;10.330;2022-09-09T14:04:19;2.77;;;1.27;;
3911;SDS011;1971;51.778;10.330;2022-09-09T14:06:56;2.47;;;1.13;;
3911;SDS011;1971;51.778;10.330;2022-09-09T14:09:38;2.13;;;1.00;;
3911;SDS011;1971;51.778;10.330;2022-09-09T14:12:17;1.47;;;1.00;;
3911;SDS011;1971;51.778;10.330;2022-09-09T14:14:59;1.63;;;1.03;;
3911;SDS011;1971;51.778;10.330;2022-09-09T14:17:35;2.73;;;0.90;;
3911;SDS011;1971;51.778;10.330;2022-09-09T14:20:17;1.03;;;0.80;;
3911;SDS011;1971;51.778;10.330;2022-09-09T14:22:53;2.13;;;1.30;;
3911;SDS011;1971;51.778;10.330;2022-09-09T14:25:36;1.60;;;1.00;;
3911;SDS011;1971;51.778;10.330;2022-09-09T14:28:18;1.60;;;1.17;;
3911;SDS011;1971;51.778;10.330;2022-09-09T14:31:00;2.03;;;1.20;;
3911;SDS011;1971;51.778;10.330;2022-09-09T14:33:38;2.50;;;1.00;;
3911;SDS011;1971;51.778;10.330;2022-09-09T14:36:20;2.70;;;1.20;;
3911;SDS011;1971;51.778;10.330;2022-09-09T14:38:57;1.20;;;1.10;;
3911;SDS011;1971;51.778;10.330;2022-09-09T14:41:40;1.63;;;1.23;;
3911;SDS011;1971;51.778;10.330;2022-09-09T14:44:19;1.60;;;1.17;;
3911;SDS011;1971;51.778;10.330;2022-09-09T14:47:01;1.73;;;1.00;;
3911;SDS011;1971;51.778;10.330;2022-09-09T14:49:38;2.10;;;1.30;;
3911;SDS011;1971;51.778;10.330;2022-09-09T14:52:18;2.13;;;0.80;;
3911;SDS011;1971;51.778;10.330;2022-09-09T14:55:00;1.40;;;1.20;;
3911;SDS011;1971;51.778;10.330;2022-09-09T14:57:36;1.20;;;0.80;;
3911;SDS011;1971;51.778;10.330;2022-09-09T15:00:21;1.10;;;1.00;;
3911;SDS011;1971;51.778;10.330;2022-09-09T15:02:57;0.60;;;0.60;;
3911;SDS011;1971;51.778;10.330;2022-09-09T15:05:39;1.40;;;0.80;;
3911;SDS011;1971;51.778;10.330;2022-09-09T15:08:15;1.57;;;0.70;;
3911;SDS011;1971;51.778;10.330;2022-09-09T15:10:58;1.17;;;0.80;;
3911;SDS011;1971;51.778;10.330;2022-09-09T15:13:35;1.80;;;0.97;;
3911;SDS011;1971;51.778;10.330;2022-09-09T15:16:21;2.03;;;0.80;;
3911;SDS011;1971;51.778;10.330;2022-09-09T15:19:00;0.70;;;0.60;;
3911;SDS011;1971;51.778;10.330;2022-09-09T15:21:42;0.97;;;0.83;;
3911;SDS011;1971;51.778;10.330;2022-09-09T15:24:18;1.00;;;0.83;;
3911;SDS011;1971;51.778;10.330;2022-09-09T15:26:55;1.57;;;0.70;;
3911;SDS011;1971;51.778;10.330;2022-09-09T15:29:37;1.10;;;0.67;;
3911;SDS011;1971;51.778;10.330;2022-09-09T15:32:17;1.13;;;0.80;;
3911;SDS011;1971;51.778;10.330;2022-09-09T15:34:59;1.00;;;0.70;;
3911;SDS011;1971;51.778;10.330;2022-09-09T15:37:35;2.03;;;0.97;;
3911;SDS011;1971;51.778;10.330;2022-09-09T15:40:17;2.40;;;1.00;;
3911;SDS011;1971;51.778;10.330;2022-09-09T15:42:53;1.97;;;0.67;;
3911;SDS011;1971;51.778;10.330;2022-09-09T15:45:35;1.20;;;0.80;;
3911;SDS011;1971;51.778;10.330;2022-09-09T15:48:15;1.57;;;0.80;;
3911;SDS011;1971;51.778;10.330;2022-09-09T15:51:00;1.00;;;0.70;;
3911;SDS011;1971;51.778;10.330;2022-09-09T15:53:53;1.60;;;0.90;;
3911;SDS011;1971;51.778;10.330;2022-09-09T15:56:36;1.33;;;0.80;;
3911;SDS011;1971;51.778;10.330;2022-09-09T15:59:13;1.07;;;0.60;;
3911;SDS011;1971;51.778;10.330;2022-09-09T16:01:55;1.43;;;0.73;;
3911;SDS011;1971;51.778;10.330;2022-09-09T16:04:35;0.80;;;0.77;;
3911;SDS011;1971;51.778;10.330;2022-09-09T16:07:11;4.60;;;1.37;;
3911;SDS011;1971;51.778;10.330;2022-09-09T16:09:53;1.37;;;1.10;;
3911;SDS011;1971;51.778;10.330;2022-09-09T16:12:29;2.47;;;1.80;;
3911;SDS011;1971;51.778;10.330;2022-09-09T16:15:11;1.20;;;0.60;;
3911;SDS011;1971;51.778;10.330;2022-09-09T16:17:47;1.53;;;0.90;;
3911;SDS011;1971;51.778;10.330;2022-09-09T16:20:32;1.60;;;0.63;;
3911;SDS011;1971;51.778;10.330;2022-09-09T16:23:08;2.00;;;0.80;;
3911;SDS011;1971;51.778;10.330;2022-09-09T16:25:52;4.10;;;1.17;;
3911;SDS011;1971;51.778;10.330;2022-09-09T16:28:32;2.13;;;0.97;;
3911;SDS011;1971;51.778;10.330;2022-09-09T16:31:15;1.20;;;0.70;;
3911;SDS011;1971;51.778;10.330;2022-09-09T16:33:53;1.30;;;0.80;;
3911;SDS011;1971;51.778;10.330;2022-09-09T16:36:39;1.00;;;0.67;;
3911;SDS011;1971;51.778;10.330;2022-09-09T16:39:17;1.00;;;0.80;;
3911;SDS011;1971;51.778;10.330;2022-09-09T16:41:55;1.20;;;0.97;;
3911;SDS011;1971;51.778;10.330;2022-09-09T16:44:38;1.53;;;0.80;;
3911;SDS011;1971;51.778;10.330;2022-09-09T16:47:14;1.60;;;1.00;;